메인 페이지
METAR-TAF:

METAR-TAF

공항 :

킨샤사, 콩고

위도: 04-23S, 경도: 015-26E, 고도: 309m

현재 날씨관측

예보는 1 시간 18분 전, 16:00시(UTC)에 발표되었습니다.
8kt
온도 27°C
습도 74%
기압 1011 hPa
시정 10km 이상
고도 2000ft 상공 구름 보통
고도 30000ft 상공 구름 많음

METAR: FZAA 141600Z 27008KT 9999 SCT020 BKN300 27/22 Q1011 NOSIG

시각: 18:18 (17:18 UTC)

예보

예보는 6 시간 18분 전, 11:00시(UTC)에 발표되었습니다.
예보 대상 시간: 14일 12시부터 15일 18시까지 (UTC)
북북서10kt
시정 10km 이상
고도 2000ft 상공 구름 보통
고도 3000ft 상공 구름 조금, 적란운.
확률 30% :
일시적
14일 13시부터 14일 17시까지 (UTC)
시정: 7000m
뇌우, 약한비
전환 중
14일 18시부터 14일 20시까지 (UTC)
서남서4kt
고도 1800ft 상공 구름 많음
전환 중
15일 09시부터 15일 11시까지 (UTC)
서북서10kt
고도 2200ft 상공 구름 보통
고도 3000ft 상공 구름 조금, 적란운.

TAF: FZAA 141100Z 1412/1518 33010KT 9999 SCT020 FEW030CB PROB30 TEMPO 1413/1417 7000 -TSRA BECMG 1418/1420 24004KT BKN018 BECMG 1509/1511 30010KT SCT022 FEW030CB

4,000개 이상의 공항 관측 자료 및 예보 (METAR 및 TAF 보고).

지도상에서 검색 가능한 기상관측소가 노란 점과 빨간 점으로 표시되어 있습니다.

기상관측소 명을 보려면 표시 위로 마우스를 이동하세요.

날씨 관측과 예보를 보려면 클릭하세요.

지도 변경 : 확대하려면 엑스 표시가 있는 녹색 버튼, 축소하려면 빼기 표시가 있는 녹색 버튼, 다음 페이지의 지도를 보려면 녹색 화살표를 클릭하세요.


METAR-TAF: